D/T METAR WX W/DIR W/SPE G/SPE TEMP DEWP
27/05/19 07:50 EGXE 270650Z AUTO 26013KT 9999 -RA SCT050/// BKN200/// 12/07 Q1006 -RA W (260°) 15.0mph 12°C 7°C
27/05/19 06:50 EGXE 270550Z AUTO 26016KT 9999 BKN050/// BKN190/// 12/07 Q1005 W (260°) 18.4mph 12°C 7°C
27/05/19 05:50 EGXE 270450Z AUTO 25015KT 9999 BKN050/// 12/06 Q1005 WSW (250°) 17.3mph 12°C 6°C
27/05/19 04:50 EGXE 270350Z AUTO 24010KT 9999 BKN042/// 12/06 Q1005 WSW (240°) 11.5mph 12°C 6°C
27/05/19 03:50 EGXE 270250Z AUTO 23011KT 9999 SCT050/// OVC230/// 11/06 Q1005 SW (230°) 12.7mph 11°C 6°C
27/05/19 02:50 EGXE 270150Z AUTO 24010KT 9999 SCT049/// BKN230/// 11/05 Q1006 WSW (240°) 11.5mph 11°C 5°C
27/05/19 01:50 EGXE 270050Z AUTO 24009KT 9999 SCT050/// 11/05 Q1006 WSW (240°) 10.4mph 11°C 5°C
27/05/19 00:50 EGXE 262350Z AUTO 25015KT 9999 BKN050/// 12/06 Q1006 WSW (250°) 17.3mph 12°C 6°C
26/05/19 23:50 EGXE 262250Z AUTO 24010KT 9999 BKN060/// 12/06 Q1007 WSW (240°) 11.5mph 12°C 6°C
26/05/19 22:50 EGXE 262150Z AUTO 25009KT 9999 BKN060/// 12/06 Q1007 WSW (250°) 10.4mph 12°C 6°C
26/05/19 21:50 EGXE 262050Z AUTO 25014KT 9999 FEW060/// 12/06 Q1008 WSW (250°) 16.1mph 12°C 6°C
26/05/19 20:50 EGXE 261950Z AUTO 26010KT 9999 SCT050/// 13/07 Q1008 W (260°) 11.5mph 13°C 7°C
26/05/19 19:50 EGXE 261850Z AUTO 25014KT 9999 BKN050/// 14/07 Q1008 WSW (250°) 16.1mph 14°C 7°C
26/05/19 18:50 EGXE 261750Z AUTO 26011KT 9999 FEW030/// BKN050/// 14/08 Q1008 RERA W (260°) 12.7mph 14°C 8°C
26/05/19 17:50 EGXE 261650Z AUTO 27015KT 9999 -RADZ FEW027/// BKN046/// 14/10 Q1008 -RA -DZ W (270°) 17.3mph 14°C 10°C
26/05/19 16:50 EGXE 261550Z AUTO 26015KT 9999 OVC049/// 16/08 Q1007 W (260°) 17.3mph 16°C 8°C
26/05/19 15:50 EGXE 261450Z AUTO 26018KT 9999 FEW039/// SCT044/// 17/08 Q1007 W (260°) 20.7mph 17°C 8°C
26/05/19 14:50 EGXE 261350Z AUTO 25019KT 9999 NCD 19/10 Q1006 WSW (250°) 21.9mph 19°C 10°C
26/05/19 13:50 EGXE 261250Z AUTO 25021KT 9999 SCT045/// 19/11 Q1007 WSW (250°) 24.2mph 19°C 11°C
26/05/19 12:50 EGXE 261150Z AUTO 26019KT 9999 SCT022/// 18/13 Q1006 W (260°) 21.9mph 18°C 13°C
26/05/19 11:50 EGXE 261050Z AUTO 26018G28KT 9999 SCT021/// SCT027/// 18/13 Q1006 W (260°) 20.7mph 32.2mph 18°C 13°C
26/05/19 10:50 EGXE 260950Z AUTO 26015KT 9999 BKN019/// SCT070/// 17/13 Q1007 RERA W (260°) 17.3mph 17°C 13°C
26/05/19 09:50 EGXE 260850Z AUTO 24012KT 9999 FEW021/// BKN050/// 17/13 Q1007 WSW (240°) 13.8mph 17°C 13°C
26/05/19 08:50 EGXE 260750Z AUTO 24010KT 9999 FEW039/// BKN060/// 16/13 Q1007 RERA WSW (240°) 11.5mph 16°C 13°C
26/05/19 07:50 EGXE 260650Z AUTO 24015KT 9999 -RA BKN060/// BKN130/// 16/12 Q1007 -RA WSW (240°) 17.3mph 16°C 12°C
26/05/19 06:50 EGXE 260550Z AUTO 21007KT 9999 FEW019/// BKN080/// 15/12 Q1008 SSW (210°) 8.1mph 15°C 12°C
26/05/19 05:50 EGXE 260450Z AUTO 18009KT 9999 FEW011/// BKN018/// BKN080/// 15/12 Q1008 S (180°) 10.4mph 15°C 12°C
26/05/19 04:50 EGXE 260350Z AUTO 21008KT 9999 OVC010/// 15/12 Q1009 SSW (210°) 9.2mph 15°C 12°C
26/05/19 03:50 EGXE 260250Z AUTO 19006KT 9999 BKN013/// SCT060/// BKN210/// 15/12 Q1010 S (190°) 6.9mph 15°C 12°C
26/05/19 02:50 EGXE 260150Z AUTO 23010KT 9999 BKN060/// BKN170/// 15/12 Q1011 SW (230°) 11.5mph 15°C 12°C
26/05/19 01:50 EGXE 260050Z AUTO 26014KT 9999 FEW016/// SCT060/// BKN140/// 15/12 Q1011 W (260°) 16.1mph 15°C 12°C
26/05/19 00:50 EGXE 252350Z AUTO 24011KT 9999 FEW017/// SCT070/// BKN170/// 15/13 Q1012 WSW (240°) 12.7mph 15°C 13°C
25/05/19 23:50 EGXE 252250Z AUTO 23011G21KT 9999 SCT015/// BKN070/// BKN100/// 15/12 Q1013 SW (230°) 12.7mph 24.2mph 15°C 12°C
25/05/19 22:50 EGXE 252150Z AUTO 19008KT 9999 FEW016/// BKN060/// 14/12 Q1013 S (190°) 9.2mph 14°C 12°C
25/05/19 21:50 EGXE 252050Z AUTO 22009KT 9999 FEW017/// OVC050/// 14/12 Q1014 SW (220°) 10.4mph 14°C 12°C
25/05/19 20:50 EGXE 251950Z AUTO 23004KT 9999 BKN050/// 14/11 Q1014 RERA SW (230°) 4.6mph 14°C 11°C
25/05/19 19:50 EGXE 251850Z AUTO 25009KT 9999 -RA FEW018/// BKN050/// 14/11 Q1014 -RA WSW (250°) 10.4mph 14°C 11°C
25/05/19 18:50 EGXE 251750Z AUTO 18006KT 9999 RA SCT018/// BKN050/// 13/11 Q1015 RA S (180°) 6.9mph 13°C 11°C
25/05/19 17:50 EGXE 251650Z AUTO 21006KT 9999 RA OVC050/// 13/11 Q1016 RA SSW (210°) 6.9mph 13°C 11°C
25/05/19 16:50 EGXE 251550Z AUTO 24008KT 9999 RA OVC050/// 14/10 Q1016 RA WSW (240°) 9.2mph 14°C 10°C
25/05/19 15:50 EGXE 251450Z AUTO 25010KT 9999 OVC060/// 16/09 Q1016 RERA WSW (250°) 11.5mph 16°C 9°C
25/05/19 14:50 EGXE 251350Z AUTO 26012KT 9999 OVC080/// 17/08 Q1016 W (260°) 13.8mph 17°C 8°C
25/05/19 13:50 EGXE 251250Z AUTO 25010KT 9999 BKN110/// 18/04 Q1016 WSW (250°) 11.5mph 18°C 4°C
25/05/19 12:50 EGXE 251150Z AUTO 15005KT 9999 BKN130/// 17/09 Q1016 SSE (150°) 5.8mph 17°C 9°C
25/05/19 11:50 EGXE 251050Z AUTO 16006KT 9999 FEW150/// SCT190/// 17/08 Q1017 SSE (160°) 6.9mph 17°C 8°C
25/05/19 10:50 EGXE 250950Z AUTO 09004KT 9999 BKN150/// 16/08 Q1017 E (90°) 4.6mph 16°C 8°C
25/05/19 09:50 EGXE 250850Z AUTO 15003KT 9999 FEW220/// 15/07 Q1018 SSE (150°) 3.5mph 15°C 7°C
25/05/19 08:50 EGXE 250750Z AUTO 36002KT 9999 SCT180/// 14/08 Q1018 N (360°) 2.3mph 14°C 8°C